PHTO/ITO METAR and TAF weather

Enter ICAO airport designator
Station Type Date Time Source
PHTO METAR 2021/05/14 04:53 UTC NOAA

PHTO 140453Z 04003KT 10SM CLR 25/19 A3010 RMK AO2 SLP192 T02500189


Station Type Date Time Source
PHTO Decoded METAR 2021/05/14 04:53 UTC NOAA

HILO INTERNATIONAL AIRPORT, HI, United States (PHTO) 19-43N 155-03W 12M
May 14, 2021 - 12:53 AM EDT / 2021.05.14 0453 UTC
Wind: from the NE (040 degrees) at 3 MPH (3 KT):0
Visibility: 10 mile(s):0
Sky conditions: clear
Temperature: 77.0 F (25.0 C)
Dew Point: 66.0 F (18.9 C)
Relative Humidity: 68%
Pressure (altimeter): 30.1 in. Hg (1019 hPa)
ob: PHTO 140453Z 04003KT 10SM CLR 25/19 A3010 RMK AO2 SLP192 T02500189
cycle: 5

Station Type Date Time Source
PHTO TAF 2021/05/13 18:22 UTC NOAA

TAF PHTO 131720Z 1318/1418 15004KT 5SM SHRA BR SCT025 BKN035
TEMPO 1318/1320 2SM SHRA BR OVC025
FM132000 05008KT P6SM VCSH SCT025 BKN045
FM140500 24005KT P6SM VCSH SCT025 BKN045

Example: see airport list